Time;durP1;ratioP1;P1;durP2;ratioP2;P2;SDS_P1;SDS_P2;PMS_P1;PMS_P2;Temp;Humidity;BMP_temperature;BMP_pressure;BME280_temperature;BME280_humidity;BME280_pressure;Samples;Min_cycle;Max_cycle;Signal;HPM_P1;HPM_P2
2022/01/15 00:01:27;;;;;;;23.05;7.15;;;6.70;99.90;;;;;;5132351;28;20062;-83
2022/01/15 00:04:12;;;;;;;20.02;7.88;;;6.80;99.90;;;;;;5117781;28;20058;-83
2022/01/15 00:06:56;;;;;;;19.42;7.28;;;6.70;99.90;;;;;;5131725;28;20070;-83
2022/01/15 00:09:43;;;;;;;;;;;7.00;99.90;;;;;;5133650;28;20039;-83
2022/01/15 00:12:28;;;;;;;22.67;7.78;;;7.60;99.90;;;;;;5118243;28;19923;-83
2022/01/15 00:15:24;;;;;;;17.52;7.40;;;6.70;99.90;;;;;;5117543;27;20494;-83
2022/01/15 00:18:13;;;;;;;20.67;7.53;;;6.70;99.90;;;;;;5136487;27;20398;-83
2022/01/15 00:20:58;;;;;;;23.58;8.07;;;6.60;99.90;;;;;;5136566;27;20041;-83
2022/01/15 00:23:43;;;;;;;;;;;6.70;99.90;;;;;;5136497;27;20042;-83
2022/01/15 00:26:27;;;;;;;16.58;7.95;;;6.70;99.90;;;;;;5135901;27;20386;-83
2022/01/15 00:29:12;;;;;;;19.73;8.20;;;6.60;99.90;;;;;;5137839;27;20041;-83
2022/01/15 00:31:56;;;;;;;28.83;9.18;;;6.60;99.90;;;;;;5141932;27;20057;-83
2022/01/15 00:34:40;;;;;;;27.48;9.13;;;6.70;99.90;;;;;;5113164;27;20037;-83
2022/01/15 00:37:24;;;;;;;;;;;6.70;99.90;;;;;;5142277;27;20048;-83
2022/01/15 00:40:13;;;;;;;29.08;10.43;;;7.10;99.90;;;;;;5156872;27;19917;-83
2022/01/15 00:42:57;;;;;;;22.95;10.00;;;6.60;99.90;;;;;;5141684;27;20037;-83
2022/01/15 00:45:41;;;;;;;36.60;10.80;;;6.60;99.90;;;;;;5141866;27;20042;-83
2022/01/15 00:48:26;;;;;;;29.92;10.25;;;6.60;99.90;;;;;;5127062;27;20045;-83
2022/01/15 00:51:11;;;;;;;25.08;9.52;;;6.70;99.90;;;;;;5156642;27;20041;-83
2022/01/15 00:53:58;;;;;;;42.50;11.25;;;6.60;99.90;;;;;;5141457;27;20532;-83
2022/01/15 00:56:42;;;;;;;23.92;9.65;;;6.60;99.90;;;;;;5141372;27;20030;-83
2022/01/15 00:59:26;;;;;;;;;;;6.60;99.90;;;;;;5157573;27;20083;-83
2022/01/15 01:02:11;;;;;;;21.58;9.00;;;6.60;99.90;;;;;;5156585;27;19967;-83
2022/01/15 01:04:55;;;;;;;29.25;10.02;;;6.70;99.90;;;;;;5141211;27;20069;-83
2022/01/15 01:07:39;;;;;;;19.98;9.63;;;6.60;99.90;;;;;;5156883;27;20539;-83
2022/01/15 01:13:27;;;;;;;19.52;8.73;;;6.70;99.90;;;;;;5156229;27;20085;-83
2022/01/15 01:25:24;;;;;;;13.80;7.57;;;6.60;99.90;;;;;;5143263;27;20555;-83
2022/01/15 01:28:23;;;;;;;12.05;6.60;;;6.60;99.90;;;;;;5140187;27;20163;-83
2022/01/15 01:31:15;;;;;;;14.20;7.10;;;6.60;99.90;;;;;;5142489;27;20119;-83
2022/01/15 01:34:07;;;;;;;12.75;6.40;;;6.60;99.90;;;;;;5141883;27;20087;-83
2022/01/15 01:39:44;;;;;;;5.85;3.63;;;6.50;99.90;;;;;;5156369;27;20042;-83
2022/01/15 01:43:31;;;;;;;3.45;2.00;;;6.60;99.90;;;;;;5126820;27;20041;-83
2022/01/15 01:45:36;;;;;;;3.10;1.52;;;6.50;99.90;;;;;;5155671;27;20488;-83
2022/01/15 01:48:20;;;;;;;3.42;1.80;;;6.40;99.90;;;;;;5140031;27;20085;-83
2022/01/15 01:51:06;;;;;;;;;;;6.40;99.90;;;;;;5156356;27;20077;-83
2022/01/15 01:53:52;;;;;;;2.80;1.70;;;6.40;99.90;;;;;;5156048;27;19918;-83
2022/01/15 01:56:39;;;;;;;5.40;2.05;;;6.70;99.90;;;;;;5155889;27;20083;-83
2022/01/15 01:59:24;;;;;;;3.92;2.35;;;6.40;99.90;;;;;;5155400;27;20099;-83
2022/01/15 02:02:09;;;;;;;4.05;2.22;;;6.40;99.90;;;;;;5155722;27;20087;-83
2022/01/15 02:04:56;;;;;;;;;;;6.40;99.90;;;;;;5156213;27;20038;-83
2022/01/15 02:07:43;;;;;;;4.28;2.05;;;6.50;99.90;;;;;;5155810;27;20029;-83
2022/01/15 02:10:28;;;;;;;3.15;2.10;;;6.40;99.90;;;;;;5155079;27;20042;-83
2022/01/15 02:13:13;;;;;;;4.20;2.08;;;6.40;99.90;;;;;;5139360;27;20083;-83
2022/01/15 02:16:00;;;;;;;4.03;2.05;;;6.40;99.90;;;;;;5155407;27;20389;-83
2022/01/15 02:18:44;;;;;;;3.80;2.10;;;6.40;99.90;;;;;;5155536;27;20041;-83
2022/01/15 02:24:31;;;;;;;4.80;2.97;;;6.30;99.90;;;;;;5154801;27;19955;-83
2022/01/15 02:27:15;;;;;;;4.20;2.08;;;6.40;99.90;;;;;;5110388;27;20095;-83
2022/01/15 02:30:03;;;;;;;3.17;1.95;;;6.60;99.90;;;;;;5124997;27;20065;-83
2022/01/15 02:32:48;;;;;;;4.07;2.30;;;6.40;99.90;;;;;;5140093;27;20102;-83
2022/01/15 02:35:33;;;;;;;3.55;1.92;;;6.40;99.90;;;;;;5124515;27;20466;-83
2022/01/15 02:38:17;;;;;;;3.25;1.90;;;6.40;99.90;;;;;;5154579;27;20046;-83
2022/01/15 02:41:01;;;;;;;;;;;6.40;99.90;;;;;;5155318;27;20091;-83
2022/01/15 02:43:45;;;;;;;4.32;2.22;;;6.30;99.90;;;;;;5139390;27;19917;-83
2022/01/15 02:49:13;;;;;;;3.13;1.98;;;6.80;99.90;;;;;;5154746;27;19918;-83
2022/01/15 02:51:57;;;;;;;4.85;2.38;;;6.30;99.90;;;;;;5154872;27;20100;-83
2022/01/15 02:54:43;;;;;;;;;;;6.40;99.90;;;;;;5154812;27;20034;-83
2022/01/15 02:57:28;;;;;;;4.13;2.30;;;6.30;99.90;;;;;;5154252;27;19914;-83
2022/01/15 03:00:12;;;;;;;;;;;6.40;99.90;;;;;;5155131;27;20164;-83
2022/01/15 03:02:56;;;;;;;5.53;2.85;;;6.30;99.90;;;;;;5138943;27;19969;-83
2022/01/15 03:05:40;;;;;;;5.75;2.35;;;6.30;99.90;;;;;;5154225;27;20107;-84
2022/01/15 03:08:24;;;;;;;4.45;2.45;;;6.30;99.90;;;;;;5154075;27;20037;-84
2022/01/15 03:11:09;;;;;;;;;;;7.10;99.90;;;;;;5139257;27;20095;-83
2022/01/15 03:13:54;;;;;;;5.88;3.10;;;6.30;99.90;;;;;;5154387;27;19922;-83
2022/01/15 03:16:38;;;;;;;5.40;2.80;;;6.30;99.90;;;;;;5154056;27;20079;-84
2022/01/15 03:19:22;;;;;;;5.95;2.88;;;6.50;99.90;;;;;;5154056;27;20072;-84
2022/01/15 03:22:07;;;;;;;6.65;3.05;;;6.30;99.90;;;;;;5124255;27;20042;-83
2022/01/15 03:24:51;;;;;;;4.35;2.78;;;6.50;99.90;;;;;;5138744;27;20083;-84
2022/01/15 03:27:36;;;;;;;5.88;2.70;;;6.30;99.90;;;;;;5153902;27;20098;-83
2022/01/15 03:30:21;;;;;;;5.00;2.88;;;6.30;99.90;;;;;;5153374;27;20164;-83
2022/01/15 03:33:06;;;;;;;4.95;2.70;;;6.30;99.90;;;;;;5124100;27;20171;-84
2022/01/15 03:35:50;;;;;;;5.82;3.05;;;6.30;99.90;;;;;;5138679;27;20157;-84
2022/01/15 03:38:35;;;;;;;8.85;3.30;;;6.60;99.90;;;;;;5123571;27;20061;-84
2022/01/15 03:41:20;;;;;;;4.22;2.50;;;6.20;99.90;;;;;;5138454;27;20041;-84
2022/01/15 03:44:04;;;;;;;4.70;2.90;;;7.30;99.90;;;;;;5138782;27;20451;-83
2022/01/15 03:46:48;;;;;;;5.20;3.08;;;6.30;99.90;;;;;;5123540;27;20118;-83
2022/01/15 03:49:32;;;;;;;5.55;3.05;;;6.30;99.90;;;;;;5153650;27;20042;-83
2022/01/15 03:52:17;;;;;;;6.68;3.10;;;6.30;99.90;;;;;;5126736;27;20094;-83
2022/01/15 03:55:02;;;;;;;;;;;6.20;99.90;;;;;;5142981;27;20402;-83
2022/01/15 03:57:47;;;;;;;5.68;3.00;;;6.30;99.90;;;;;;5157803;27;20426;-83
2022/01/15 04:00:31;;;;;;;5.50;3.20;;;6.30;99.90;;;;;;5157773;27;20451;-83
2022/01/15 04:03:15;;;;;;;5.97;3.40;;;6.10;99.90;;;;;;5142569;27;20447;-83
2022/01/15 04:06:00;;;;;;;7.55;3.17;;;6.20;99.90;;;;;;5142367;27;20057;-84
2022/01/15 04:08:44;;;;;;;;;;;6.20;99.90;;;;;;5158080;27;20087;-83
2022/01/15 04:11:28;;;;;;;6.47;3.33;;;6.20;99.90;;;;;;5157987;27;20483;-83
2022/01/15 04:14:13;;;;;;;5.05;3.08;;;6.20;99.90;;;;;;5142385;27;20149;-84
2022/01/15 04:16:57;;;;;;;15.95;3.67;;;6.20;99.90;;;;;;5127776;27;20119;-83
2022/01/15 04:19:41;;;;;;;8.10;3.90;;;6.20;99.90;;;;;;5157399;27;20081;-83
2022/01/15 04:22:26;;;;;;;5.93;3.60;;;6.20;99.90;;;;;;5142161;27;20087;-83
2022/01/15 04:25:10;;;;;;;6.35;3.50;;;6.30;99.90;;;;;;5157837;27;20075;-84
2022/01/15 04:27:57;;;;;;;6.68;3.63;;;6.20;99.90;;;;;;5157206;27;20414;-83
2022/01/15 04:30:46;;;;;;;6.90;3.38;;;6.30;99.90;;;;;;5127800;27;20062;-84
2022/01/15 04:33:36;;;;;;;5.72;3.20;;;6.70;99.90;;;;;;5142672;27;20038;-83
2022/01/15 04:36:20;;;;;;;6.15;3.67;;;6.70;99.90;;;;;;5157600;27;20105;-83
2022/01/15 04:39:04;;;;;;;7.30;3.70;;;6.90;99.90;;;;;;5141789;27;20046;-83
2022/01/15 04:41:49;;;;;;;5.47;3.17;;;6.30;99.90;;;;;;5126750;27;20119;-83
2022/01/15 04:44:33;;;;;;;;;;;6.20;99.90;;;;;;5157733;27;20045;-84
2022/01/15 04:47:17;;;;;;;6.13;3.45;;;6.10;99.90;;;;;;5157293;27;19998;-83
2022/01/15 04:50:04;;;;;;;7.05;3.78;;;6.20;99.90;;;;;;5141699;27;20506;-83
2022/01/15 04:52:48;;;;;;;6.43;3.78;;;6.20;99.90;;;;;;5156717;27;20037;-84
2022/01/15 04:55:33;;;;;;;10.68;4.13;;;6.20;99.90;;;;;;5141387;27;20535;-84
2022/01/15 04:58:17;;;;;;;7.53;3.65;;;6.70;99.90;;;;;;5126985;27;20497;-83
2022/01/15 05:01:01;;;;;;;;;;;6.20;99.90;;;;;;5157131;27;20130;-83
2022/01/15 05:03:45;;;;;;;6.13;3.35;;;7.30;99.90;;;;;;5140275;27;20345;-83
2022/01/15 05:06:30;;;;;;;5.95;3.15;;;6.30;99.90;;;;;;5141486;27;20041;-83
2022/01/15 05:09:14;;;;;;;6.22;3.30;;;6.70;99.90;;;;;;5156813;27;20034;-83
2022/01/15 05:12:06;;;;;;;9.98;4.00;;;6.20;99.90;;;;;;5156357;27;20099;-83
2022/01/15 05:14:50;;;;;;;6.82;3.58;;;6.20;99.90;;;;;;5140675;27;20077;-83
2022/01/15 05:17:35;;;;;;;6.70;3.58;;;6.40;99.90;;;;;;5141054;27;20102;-84
2022/01/15 05:20:21;;;;;;;9.63;4.45;;;6.20;99.90;;;;;;5126490;27;20050;-84
2022/01/15 05:23:05;;;;;;;7.82;4.13;;;6.20;99.90;;;;;;5141812;27;20064;-84
2022/01/15 05:25:49;;;;;;;;;;;6.70;99.90;;;;;;5126255;27;20056;-83
2022/01/15 05:28:33;;;;;;;5.38;3.35;;;6.10;99.90;;;;;;5156463;27;20017;-83
2022/01/15 05:31:17;;;;;;;;;;;6.10;99.90;;;;;;5141095;27;20106;-84
2022/01/15 05:34:02;;;;;;;6.85;3.92;;;6.10;99.90;;;;;;5140338;27;20286;-84
2022/01/15 05:36:46;;;;;;;8.48;3.50;;;6.30;99.90;;;;;;5155959;27;20038;-83
2022/01/15 05:39:30;;;;;;;8.20;4.47;;;6.00;99.90;;;;;;5111738;27;20098;-83
2022/01/15 05:42:15;;;;;;;6.13;3.53;;;6.10;99.90;;;;;;5140604;27;20119;-83
2022/01/15 05:44:59;;;;;;;7.65;3.53;;;6.10;99.90;;;;;;5155759;27;20079;-83
2022/01/15 05:47:43;;;;;;;;;;;6.80;99.90;;;;;;5156532;27;20118;-83
2022/01/15 05:50:27;;;;;;;5.75;3.00;;;6.50;99.90;;;;;;5140259;27;19922;-83
2022/01/15 05:53:12;;;;;;;5.88;3.08;;;6.10;99.90;;;;;;5140380;27;20046;-83
2022/01/15 05:55:56;;;;;;;7.35;3.70;;;6.10;99.90;;;;;;5125309;27;20083;-83
2022/01/15 05:58:40;;;;;;;;;;;6.10;99.90;;;;;;5156387;27;20033;-83
2022/01/15 06:01:24;;;;;;;6.45;3.38;;;6.10;99.90;;;;;;5155795;27;19922;-84
2022/01/15 06:04:09;;;;;;;6.18;3.63;;;6.20;99.90;;;;;;5125353;27;20092;-83
2022/01/15 06:06:53;;;;;;;;;;;6.10;99.90;;;;;;5155787;27;20088;-84
2022/01/15 06:09:37;;;;;;;7.82;4.10;;;6.10;99.90;;;;;;5140046;27;20018;-84
2022/01/15 06:12:28;;;;;;;6.93;4.07;;;6.00;99.90;;;;;;5139943;27;20100;-84
2022/01/15 06:15:14;;;;;;;6.35;3.97;;;6.70;99.90;;;;;;5111614;27;20102;-84
2022/01/15 06:17:58;;;;;;;8.40;4.32;;;6.30;99.90;;;;;;5155112;27;20080;-83
2022/01/15 06:20:42;;;;;;;;;;;6.00;99.90;;;;;;5155888;27;20045;-83
2022/01/15 06:23:26;;;;;;;7.28;3.65;;;6.00;99.90;;;;;;5125156;27;19981;-83
2022/01/15 06:26:10;;;;;;;8.50;4.63;;;6.40;99.90;;;;;;5154972;27;20223;-83
2022/01/15 06:28:54;;;;;;;10.45;4.47;;;6.00;99.90;;;;;;5139320;27;20038;-83
2022/01/15 06:31:38;;;;;;;9.02;4.15;;;6.30;99.90;;;;;;5155787;27;20061;-84
2022/01/15 06:34:22;;;;;;;6.60;4.22;;;6.60;99.90;;;;;;5125117;27;20042;-83
2022/01/15 06:37:06;;;;;;;;;;;6.30;99.90;;;;;;5139465;27;20075;-83
2022/01/15 06:39:50;;;;;;;7.78;4.22;;;6.00;99.90;;;;;;5139422;27;19918;-83
2022/01/15 06:42:35;;;;;;;;;;;6.40;99.90;;;;;;5139735;27;20054;-83
2022/01/15 06:45:19;;;;;;;;;;;6.40;99.90;;;;;;5155461;27;19914;-84
2022/01/15 06:48:04;;;;;;;8.93;4.55;;;7.20;99.90;;;;;;5138691;27;20323;-83
2022/01/15 06:50:48;;;;;;;8.93;4.72;;;6.00;99.90;;;;;;5139110;27;20406;-84
2022/01/15 06:53:32;;;;;;;;;;;6.00;99.90;;;;;;5139042;27;20048;-83
2022/01/15 06:56:16;;;;;;;7.65;3.67;;;6.00;99.90;;;;;;5153827;27;19959;-84
2022/01/15 06:59:00;;;;;;;;;;;7.00;99.90;;;;;;5138839;27;20496;-84
2022/01/15 07:01:44;;;;;;;7.65;3.95;;;6.00;99.90;;;;;;5139049;27;19918;-84
2022/01/15 07:04:29;;;;;;;11.02;4.90;;;5.90;99.90;;;;;;5124577;27;20042;-83
2022/01/15 07:07:13;;;;;;;7.45;4.28;;;5.90;99.90;;;;;;5154191;27;20033;-83
2022/01/15 07:09:58;;;;;;;10.57;5.00;;;6.00;99.90;;;;;;5135443;27;20466;-84
2022/01/15 07:12:42;;;;;;;12.10;5.45;;;6.00;99.90;;;;;;5153410;27;20094;-83
2022/01/15 07:15:26;;;;;;;11.35;5.00;;;6.10;99.90;;;;;;5138167;27;20063;-83
2022/01/15 07:18:10;;;;;;;11.27;5.90;;;5.90;99.90;;;;;;5153012;27;20095;-85
2022/01/15 07:20:54;;;;;;;12.68;5.53;;;6.00;99.90;;;;;;5123717;27;20494;-85
2022/01/15 07:23:38;;;;;;;10.85;5.65;;;5.90;99.90;;;;;;5117464;27;20084;-84
2022/01/15 07:26:23;;;;;;;9.85;5.43;;;5.90;99.90;;;;;;5117148;27;20073;-84
2022/01/15 07:29:14;;;;;;;;;;;5.90;99.90;;;;;;5121283;27;20045;-84
2022/01/15 07:31:58;;;;;;;11.32;5.30;;;5.90;99.90;;;;;;5104344;28;20362;-85
2022/01/15 07:34:42;;;;;;;10.75;5.22;;;5.80;99.90;;;;;;5117887;28;20130;-84
2022/01/15 07:37:26;;;;;;;;;;;5.90;99.90;;;;;;5117908;28;20430;-84
2022/01/15 07:40:12;;;;;;;12.25;5.45;;;5.80;99.90;;;;;;5102795;28;20374;-83
2022/01/15 07:42:56;;;;;;;9.70;4.35;;;5.80;99.90;;;;;;5103441;28;20548;-83
2022/01/15 07:45:40;;;;;;;11.45;5.07;;;5.90;99.90;;;;;;5103341;28;20502;-84
2022/01/15 07:48:24;;;;;;;8.80;4.60;;;6.60;99.90;;;;;;5117061;28;20096;-83
2022/01/15 07:51:09;;;;;;;8.65;4.60;;;6.20;99.90;;;;;;5102869;28;20558;-86
2022/01/15 07:53:53;;;;;;;9.70;4.70;;;5.80;99.90;;;;;;5133180;28;20099;-82
2022/01/15 07:56:37;;;;;;;8.75;4.50;;;5.90;99.90;;;;;;5088970;28;20061;-85
2022/01/15 07:59:22;;;;;;;7.07;3.70;;;5.80;99.90;;;;;;5132285;28;20091;-83
2022/01/15 08:02:07;;;;;;;9.27;4.07;;;5.80;99.90;;;;;;5095522;27;20034;-82
2022/01/15 08:04:51;;;;;;;7.10;3.83;;;5.80;99.90;;;;;;5122300;27;20050;-87
2022/01/15 08:07:35;;;;;;;6.70;4.05;;;5.90;99.90;;;;;;5137411;27;20046;-84
2022/01/15 08:10:20;;;;;;;7.15;3.67;;;5.80;99.90;;;;;;5132804;28;20092;-84
2022/01/15 08:13:04;;;;;;;7.63;3.60;;;5.80;99.90;;;;;;5103388;28;20575;-84
2022/01/15 08:15:50;;;;;;;6.88;3.83;;;5.80;99.90;;;;;;5117579;28;20045;-84
2022/01/15 08:18:35;;;;;;;7.28;4.18;;;5.90;99.90;;;;;;5133096;28;20410;-84
2022/01/15 08:21:20;;;;;;;6.97;3.40;;;5.80;99.90;;;;;;5117169;28;20501;-84
2022/01/15 08:24:04;;;;;;;7.35;3.78;;;5.70;99.90;;;;;;5117527;28;20042;-84
2022/01/15 08:26:48;;;;;;;8.90;3.95;;;5.70;99.90;;;;;;5103175;28;20111;-84
2022/01/15 08:29:32;;;;;;;8.15;4.40;;;5.70;99.90;;;;;;5117071;28;20046;-84
2022/01/15 08:32:16;;;;;;;;;;;5.70;99.90;;;;;;5133055;28;20043;-84
2022/01/15 08:35:02;;;;;;;11.43;5.22;;;6.00;99.90;;;;;;5133139;28;19919;-84
2022/01/15 08:37:46;;;;;;;9.93;5.32;;;5.60;99.90;;;;;;5134714;27;20407;-84
2022/01/15 08:40:32;;;;;;;;;;;5.70;99.90;;;;;;5136655;27;20070;-84
2022/01/15 08:43:16;;;;;;;10.70;5.72;;;5.70;99.90;;;;;;5136267;27;19914;-84
2022/01/15 08:46:02;;;;;;;9.70;5.18;;;5.90;99.90;;;;;;5136497;27;20446;-84
2022/01/15 08:48:46;;;;;;;10.02;5.13;;;5.70;99.90;;;;;;5106857;27;20080;-84
2022/01/15 08:51:31;;;;;;;9.65;6.07;;;5.90;99.90;;;;;;5135934;27;20378;-84
2022/01/15 08:54:15;;;;;;;;;;;5.80;99.90;;;;;;5136474;27;20053;-84
2022/01/15 08:56:59;;;;;;;12.52;5.85;;;5.70;99.90;;;;;;5136519;27;20423;-84
2022/01/15 08:59:43;;;;;;;12.95;7.10;;;5.80;99.90;;;;;;5136278;27;20034;-84
2022/01/15 09:02:28;;;;;;;15.40;7.95;;;5.80;99.90;;;;;;5120301;27;20505;-84
2022/01/15 09:05:13;;;;;;;;;;;5.70;99.90;;;;;;5121435;27;20083;-84
2022/01/15 09:07:57;;;;;;;12.70;6.55;;;5.80;99.90;;;;;;5136221;27;19945;-84
2022/01/15 09:10:42;;;;;;;11.65;7.05;;;5.70;99.90;;;;;;5106154;27;20049;-84
2022/01/15 09:13:27;;;;;;;13.60;7.15;;;5.90;99.90;;;;;;5120169;27;20407;-84
2022/01/15 09:16:11;;;;;;;11.82;7.13;;;5.70;99.90;;;;;;5120394;27;20498;-84
2022/01/15 09:18:56;;;;;;;12.93;7.47;;;5.70;99.90;;;;;;5120374;27;20129;-84
2022/01/15 09:21:40;;;;;;;10.77;5.93;;;5.70;99.90;;;;;;5120827;27;20042;-84
2022/01/15 09:24:24;;;;;;;11.00;6.88;;;5.90;99.90;;;;;;5119726;27;20046;-84
2022/01/15 09:30:13;;;;;;;16.38;7.68;;;5.60;99.90;;;;;;5135625;27;20066;-84
2022/01/15 09:32:58;;;;;;;14.38;7.82;;;5.90;99.90;;;;;;5135600;27;20084;-84
2022/01/15 09:35:42;;;;;;;16.77;8.00;;;5.60;99.90;;;;;;5135576;27;20072;-84
2022/01/15 09:38:26;;;;;;;;;;;5.70;99.90;;;;;;5135640;27;20536;-84
2022/01/15 09:41:11;;;;;;;16.15;8.15;;;6.00;99.90;;;;;;5119890;27;19918;-84
2022/01/15 09:43:56;;;;;;;15.68;7.78;;;6.30;99.90;;;;;;5120000;27;20038;-84
2022/01/15 09:46:41;;;;;;;13.68;8.00;;;5.60;99.90;;;;;;5104992;27;20176;-84
2022/01/15 09:49:28;;;;;;;19.13;8.25;;;5.70;99.90;;;;;;5118383;27;20121;-84
2022/01/15 09:52:16;;;;;;;15.27;8.50;;;6.80;99.90;;;;;;5119380;27;20498;-84
2022/01/15 09:55:02;;;;;;;18.98;9.23;;;5.70;99.90;;;;;;5119252;27;20034;-85
2022/01/15 09:57:47;;;;;;;18.17;9.02;;;5.70;99.90;;;;;;5134666;27;20079;-84
2022/01/15 10:00:31;;;;;;;22.17;11.45;;;5.70;99.90;;;;;;5118801;27;20038;-85
2022/01/15 10:03:15;;;;;;;24.90;9.85;;;5.80;99.90;;;;;;5133939;27;20054;-86
2022/01/15 10:06:06;;;;;;;22.02;10.45;;;5.80;99.90;;;;;;5138856;27;20083;-83
2022/01/15 10:09:08;;;;;;;26.65;11.52;;;5.70;99.90;;;;;;5153336;27;20061;-83
2022/01/15 10:11:52;;;;;;;24.73;12.45;;;5.70;99.90;;;;;;5139043;27;20118;-84
2022/01/15 10:14:40;;;;;;;23.63;10.73;;;5.70;99.90;;;;;;5138449;27;20487;-84
2022/01/15 10:17:28;;;;;;;18.23;9.55;;;5.70;99.90;;;;;;5153436;27;20075;-83
2022/01/15 10:20:18;;;;;;;19.30;9.82;;;5.70;99.90;;;;;;5137318;27;20041;-83
2022/01/15 10:23:14;;;;;;;22.33;10.85;;;5.80;99.90;;;;;;5152802;27;20062;-83
2022/01/15 10:26:14;;;;;;;21.05;10.45;;;5.80;99.90;;;;;;5136206;27;20079;-84
2022/01/15 10:29:04;;;;;;;19.88;10.27;;;5.80;99.90;;;;;;5151872;27;20113;-84
2022/01/15 10:31:48;;;;;;;19.63;9.45;;;5.70;99.90;;;;;;5154304;27;20505;-83
2022/01/15 10:34:33;;;;;;;;;;;5.70;99.90;;;;;;5138296;27;20411;-84
2022/01/15 10:37:27;;;;;;;16.08;8.80;;;5.70;99.90;;;;;;5135969;27;19945;-83
2022/01/15 10:40:12;;;;;;;15.27;8.90;;;5.70;99.90;;;;;;5154409;27;20079;-83
2022/01/15 10:42:59;;;;;;;19.48;9.68;;;5.70;99.90;;;;;;5138804;27;20033;-83
2022/01/15 10:45:51;;;;;;;17.40;9.30;;;5.70;99.90;;;;;;5153954;27;20038;-86
2022/01/15 10:48:40;;;;;;;16.00;8.85;;;6.30;99.90;;;;;;5138389;27;20099;-84
2022/01/15 10:51:24;;;;;;;16.35;8.95;;;5.60;99.90;;;;;;5125026;27;20497;-83
2022/01/15 10:54:08;;;;;;;20.70;10.27;;;5.60;99.90;;;;;;5139130;27;20042;-84
2022/01/15 10:57:08;;;;;;;;;;;5.70;99.90;;;;;;5129347;27;20041;-84
2022/01/15 11:00:00;;;;;;;44.38;24.75;;;5.60;99.90;;;;;;5102871;27;19934;-87
2022/01/15 11:02:50;;;;;;;23.17;13.35;;;5.60;99.90;;;;;;5117419;27;20061;-83
2022/01/15 11:05:44;;;;;;;20.58;11.02;;;5.60;99.90;;;;;;5132885;27;20261;-83
2022/01/15 11:08:29;;;;;;;23.65;12.18;;;5.60;99.90;;;;;;5133241;27;20083;-83
2022/01/15 11:11:14;;;;;;;19.33;11.35;;;5.60;99.90;;;;;;5103246;27;20038;-83
2022/01/15 11:13:59;;;;;;;19.77;11.48;;;5.60;99.90;;;;;;5117551;27;20041;-84
2022/01/15 11:16:43;;;;;;;26.05;12.68;;;6.00;99.90;;;;;;5117015;27;20049;-83
2022/01/15 11:19:29;;;;;;;;;;;5.60;99.90;;;;;;5117979;27;20077;-83
2022/01/15 11:22:19;;;;;;;21.08;13.00;;;5.50;99.90;;;;;;5133158;27;19919;-83
2022/01/15 11:25:03;;;;;;;18.48;11.65;;;5.50;99.90;;;;;;5117414;27;20390;-83
2022/01/15 11:27:47;;;;;;;19.10;11.63;;;5.50;99.90;;;;;;5088225;28;20092;-84
2022/01/15 11:30:33;;;;;;;20.33;12.10;;;5.50;99.90;;;;;;5117110;27;20062;-83
2022/01/15 11:33:28;;;;;;;20.95;11.15;;;5.40;99.90;;;;;;5132924;28;20143;-83
2022/01/15 11:36:31;;;;;;;17.75;10.90;;;5.40;99.90;;;;;;5117336;28;20140;-84
2022/01/15 11:39:20;;;;;;;20.73;11.90;;;5.40;99.90;;;;;;5117329;28;20073;-83
2022/01/15 11:42:05;;;;;;;21.00;11.70;;;5.40;99.90;;;;;;5117281;28;20046;-83
2022/01/15 11:44:49;;;;;;;19.17;11.10;;;5.30;99.90;;;;;;5116745;28;20030;-83
2022/01/15 11:47:34;;;;;;;21.60;13.32;;;5.30;99.90;;;;;;5102797;28;20069;-84
2022/01/15 11:50:20;;;;;;;25.27;13.95;;;5.30;99.90;;;;;;5116770;28;20045;-83
2022/01/15 11:53:06;;;;;;;25.00;13.95;;;5.30;99.90;;;;;;5116596;28;20050;-84
2022/01/15 11:56:21;;;;;;;24.40;13.35;;;5.30;99.90;;;;;;5116948;28;20042;-83
2022/01/15 11:59:23;;;;;;;22.02;11.95;;;5.40;99.90;;;;;;5132122;28;20501;-85
2022/01/15 12:02:30;;;;;;;23.02;12.85;;;5.40;99.90;;;;;;5132011;27;20085;-83
2022/01/15 12:05:15;;;;;;;21.85;12.73;;;5.40;99.90;;;;;;5135886;27;20126;-83
2022/01/15 12:08:02;;;;;;;22.73;12.93;;;5.40;99.90;;;;;;5136145;27;20549;-83
2022/01/15 12:10:51;;;;;;;23.38;13.18;;;5.40;99.90;;;;;;5131747;27;20122;-83
2022/01/15 12:13:44;;;;;;;24.52;14.15;;;5.40;99.90;;;;;;5125386;27;20045;-83
2022/01/15 12:16:31;;;;;;;21.85;13.18;;;5.80;99.90;;;;;;5155267;27;20109;-84
2022/01/15 12:19:15;;;;;;;21.35;13.32;;;5.50;99.90;;;;;;5157432;27;20498;-84
2022/01/15 12:21:59;;;;;;;;;;;5.50;99.90;;;;;;5141704;27;20046;-84
2022/01/15 12:24:51;;;;;;;23.40;13.65;;;5.40;99.90;;;;;;5157239;27;19917;-81
2022/01/15 12:27:36;;;;;;;26.15;13.73;;;5.70;99.90;;;;;;5141886;27;20041;-81
2022/01/15 12:30:25;;;;;;;23.25;13.70;;;5.40;99.90;;;;;;5155457;27;20116;-81
2022/01/15 12:33:13;;;;;;;26.17;13.02;;;5.40;99.90;;;;;;5154039;27;20041;-81
2022/01/15 12:36:00;;;;;;;25.15;13.82;;;5.40;99.90;;;;;;5124731;27;20087;-81
2022/01/15 12:38:50;;;;;;;23.73;13.88;;;5.30;99.90;;;;;;5141107;27;20042;-81
2022/01/15 12:41:35;;;;;;;22.17;12.70;;;5.30;99.90;;;;;;5139562;27;20135;-81
2022/01/15 12:44:21;;;;;;;23.30;13.40;;;5.30;99.90;;;;;;5124679;27;20079;-83
2022/01/15 12:47:05;;;;;;;21.40;13.23;;;5.30;99.90;;;;;;5156556;27;20511;-82
2022/01/15 12:49:54;;;;;;;23.40;13.68;;;5.20;99.90;;;;;;5139778;27;20046;-81
2022/01/15 12:52:39;;;;;;;27.60;14.73;;;5.20;99.90;;;;;;5141145;27;20058;-81
2022/01/15 12:55:31;;;;;;;25.58;14.20;;;5.20;99.90;;;;;;5157229;27;20041;-81
2022/01/15 12:58:22;;;;;;;27.88;15.23;;;5.20;99.90;;;;;;5157329;27;20410;-81
2022/01/15 13:01:10;;;;;;;31.02;16.35;;;5.20;99.90;;;;;;5156618;27;20090;-81
2022/01/15 13:03:55;;;;;;;29.60;15.23;;;6.00;99.90;;;;;;5156619;27;20406;-81
2022/01/15 13:06:42;;;;;;;28.67;15.50;;;5.20;99.90;;;;;;5126706;27;20119;-81
2022/01/15 13:09:44;;;;;;;29.40;14.75;;;5.20;99.90;;;;;;5141686;27;20091;-81
2022/01/15 13:12:44;;;;;;;28.23;14.55;;;5.20;99.90;;;;;;5156932;27;20085;-81
2022/01/15 13:15:29;;;;;;;25.85;15.20;;;5.70;99.90;;;;;;5156810;27;20041;-81
2022/01/15 13:18:16;;;;;;;31.70;15.38;;;5.20;99.90;;;;;;5156742;27;20407;-81
2022/01/15 13:21:02;;;;;;;30.98;14.98;;;5.40;99.90;;;;;;5156409;27;20090;-81
2022/01/15 13:23:54;;;;;;;28.35;15.52;;;5.30;99.90;;;;;;5140570;27;20515;-81
2022/01/15 13:26:46;;;;;;;31.95;15.20;;;5.40;99.90;;;;;;5156739;27;20050;-81
2022/01/15 13:29:39;;;;;;;25.63;14.05;;;5.30;99.90;;;;;;5156487;27;20485;-81
2022/01/15 13:32:23;;;;;;;29.88;15.30;;;5.30;99.90;;;;;;5141505;27;20049;-81
2022/01/15 13:35:12;;;;;;;26.35;14.15;;;5.30;99.90;;;;;;5155925;27;20099;-81
2022/01/15 13:38:03;;;;;;;26.30;13.88;;;5.20;99.90;;;;;;5155924;27;20398;-81
2022/01/15 13:40:48;;;;;;;26.35;13.57;;;5.20;99.90;;;;;;5156296;27;20497;-81
2022/01/15 13:43:34;;;;;;;24.90;13.82;;;5.20;99.90;;;;;;5156310;27;20050;-81
2022/01/15 13:46:21;;;;;;;28.15;14.00;;;5.10;99.90;;;;;;5140951;27;20128;-81
2022/01/15 13:49:14;;;;;;;26.33;13.98;;;5.10;99.90;;;;;;5155722;27;20064;-81
2022/01/15 13:55:05;;;;;;;27.77;14.43;;;5.10;99.90;;;;;;5155628;27;20045;-81
2022/01/15 13:57:49;;;;;;;27.25;14.30;;;5.00;99.90;;;;;;5156038;27;20055;-81
2022/01/15 14:00:34;;;;;;;35.47;17.17;;;5.00;99.90;;;;;;5140495;27;20045;-81
2022/01/15 14:03:25;;;;;;;31.38;15.60;;;5.00;99.90;;;;;;5155394;27;20042;-81
2022/01/15 14:06:09;;;;;;;30.48;15.43;;;5.00;99.90;;;;;;5139617;27;20151;-81
2022/01/15 14:09:00;;;;;;;;;;;5.00;99.90;;;;;;5156119;27;20079;-81
2022/01/15 14:12:07;;;;;;;29.77;15.25;;;5.00;99.90;;;;;;5139969;27;19921;-81
2022/01/15 14:15:06;;;;;;;33.45;16.52;;;5.00;99.90;;;;;;5155704;27;20038;-81
2022/01/15 14:18:00;;;;;;;26.70;15.30;;;5.00;99.90;;;;;;5139852;27;20038;-81
2022/01/15 14:21:05;;;;;;;32.25;16.27;;;5.10;99.90;;;;;;5139966;27;20041;-81
2022/01/15 14:23:55;;;;;;;29.40;16.30;;;5.10;99.90;;;;;;5155436;27;20088;-81
2022/01/15 14:26:46;;;;;;;31.08;16.48;;;5.10;99.90;;;;;;5155346;27;20045;-81
2022/01/15 14:29:30;;;;;;;29.95;14.68;;;5.10;99.90;;;;;;5155431;27;20037;-81
2022/01/15 14:32:14;;;;;;;;;;;5.10;99.90;;;;;;5098610;28;20431;-81
2022/01/15 14:34:59;;;;;;;26.33;14.00;;;5.10;99.90;;;;;;5112921;28;19972;-81
2022/01/15 14:37:43;;;;;;;32.30;15.02;;;5.00;99.90;;;;;;5113018;28;20065;-81
2022/01/15 14:40:27;;;;;;;;;;;5.20;99.90;;;;;;5114404;28;20038;-81
2022/01/15 14:43:11;;;;;;;26.60;14.48;;;5.00;99.90;;;;;;5113425;28;19915;-81
2022/01/15 14:45:56;;;;;;;29.45;15.27;;;4.80;99.90;;;;;;5113740;28;20525;-81
2022/01/15 14:48:40;;;;;;;30.85;15.73;;;4.80;99.90;;;;;;5113830;28;20043;-81
2022/01/15 14:51:24;;;;;;;;;;;4.90;99.90;;;;;;5112590;28;20063;-81
2022/01/15 14:54:08;;;;;;;25.10;12.50;;;4.80;99.90;;;;;;5113315;28;19915;-81
2022/01/15 14:56:52;;;;;;;29.05;16.30;;;4.80;99.90;;;;;;5112513;28;20038;-81
2022/01/15 14:59:36;;;;;;;;;;;4.80;99.90;;;;;;5114094;28;20092;-81
2022/01/15 15:02:21;;;;;;;37.75;17.25;;;4.80;99.90;;;;;;5112083;28;19914;-81
2022/01/15 15:05:07;;;;;;;32.72;16.45;;;4.80;99.90;;;;;;5113010;28;20058;-81
2022/01/15 15:07:51;;;;;;;36.35;17.15;;;4.80;99.90;;;;;;5112437;28;20422;-81